Aurelino Leal, Brazil
Current Conditions -  °F | °C
As of 11:00 AM on Tuesday 27 Jan 2015 (Local Time) from SBIL Reporting Station
Scattered Clouds Scattered Clouds  
Wind Chill: 86°   Ceiling: Unl
Heat Index: 93°   Visibility: 6mi
Dew Point: 73°   Wind: 7mph
Humidity: 66%   Direction: 30°NNE
Pressure: 30"   Gusts: NA
Location:  14.32°S, 39.33°W
Report Text: SBIL 271400Z 03006KT 9999 SCT025 30/23 Q1016
Loading
Personal Weather Stations






























Interactive Weather Map New forecast layout! Learn more

10-Day Weather Forecast

Advertisements
Track Severe Weather on mobile